sensor_id;sensor_type;location;lat;lon;timestamp;P1;durP1;ratioP1;P2;durP2;ratioP2
12367;SDS011;6248;49.812;6.620;2023-04-15T00:00:18;2.33;;;1.80;;
12367;SDS011;6248;49.812;6.620;2023-04-15T00:02:45;2.00;;;1.73;;
12367;SDS011;6248;49.812;6.620;2023-04-15T00:05:14;2.53;;;1.70;;
12367;SDS011;6248;49.812;6.620;2023-04-15T00:07:41;4.33;;;1.50;;
12367;SDS011;6248;49.812;6.620;2023-04-15T00:10:09;5.00;;;1.77;;
12367;SDS011;6248;49.812;6.620;2023-04-15T00:12:37;1.43;;;1.33;;
12367;SDS011;6248;49.812;6.620;2023-04-15T00:15:04;2.40;;;1.50;;
12367;SDS011;6248;49.812;6.620;2023-04-15T00:17:32;2.67;;;1.40;;
12367;SDS011;6248;49.812;6.620;2023-04-15T00:20:00;3.13;;;1.60;;
12367;SDS011;6248;49.812;6.620;2023-04-15T00:22:29;2.70;;;1.60;;
12367;SDS011;6248;49.812;6.620;2023-04-15T00:24:56;2.57;;;1.53;;
12367;SDS011;6248;49.812;6.620;2023-04-15T00:27:23;2.20;;;1.60;;
12367;SDS011;6248;49.812;6.620;2023-04-15T00:29:50;2.07;;;1.40;;
12367;SDS011;6248;49.812;6.620;2023-04-15T00:32:18;4.93;;;1.73;;
12367;SDS011;6248;49.812;6.620;2023-04-15T00:34:45;2.97;;;1.60;;
12367;SDS011;6248;49.812;6.620;2023-04-15T00:37:13;3.67;;;2.57;;
12367;SDS011;6248;49.812;6.620;2023-04-15T00:39:42;4.17;;;3.33;;
12367;SDS011;6248;49.812;6.620;2023-04-15T00:42:09;2.97;;;2.60;;
12367;SDS011;6248;49.812;6.620;2023-04-15T00:44:36;4.30;;;2.40;;
12367;SDS011;6248;49.812;6.620;2023-04-15T00:47:03;3.00;;;2.50;;
12367;SDS011;6248;49.812;6.620;2023-04-15T00:49:31;3.20;;;2.57;;
12367;SDS011;6248;49.812;6.620;2023-04-15T00:51:59;3.23;;;2.60;;
12367;SDS011;6248;49.812;6.620;2023-04-15T00:54:26;3.13;;;2.00;;
12367;SDS011;6248;49.812;6.620;2023-04-15T00:56:54;3.33;;;2.00;;
12367;SDS011;6248;49.812;6.620;2023-04-15T00:59:22;2.27;;;1.70;;
12367;SDS011;6248;49.812;6.620;2023-04-15T01:01:49;1.90;;;1.60;;
12367;SDS011;6248;49.812;6.620;2023-04-15T01:04:16;2.23;;;1.40;;
12367;SDS011;6248;49.812;6.620;2023-04-15T01:06:43;2.40;;;1.60;;
12367;SDS011;6248;49.812;6.620;2023-04-15T01:09:11;3.00;;;1.30;;
12367;SDS011;6248;49.812;6.620;2023-04-15T01:11:38;1.33;;;1.20;;
12367;SDS011;6248;49.812;6.620;2023-04-15T01:14:06;2.27;;;1.63;;
12367;SDS011;6248;49.812;6.620;2023-04-15T01:16:34;3.17;;;1.50;;
12367;SDS011;6248;49.812;6.620;2023-04-15T01:19:03;2.73;;;1.33;;
12367;SDS011;6248;49.812;6.620;2023-04-15T01:21:31;2.73;;;1.30;;
12367;SDS011;6248;49.812;6.620;2023-04-15T01:23:58;2.80;;;1.50;;
12367;SDS011;6248;49.812;6.620;2023-04-15T01:26:28;2.67;;;1.50;;
12367;SDS011;6248;49.812;6.620;2023-04-15T01:28:55;1.70;;;1.20;;
12367;SDS011;6248;49.812;6.620;2023-04-15T01:31:22;3.43;;;1.40;;
12367;SDS011;6248;49.812;6.620;2023-04-15T01:33:49;2.60;;;1.50;;
12367;SDS011;6248;49.812;6.620;2023-04-15T01:36:16;2.27;;;1.33;;
12367;SDS011;6248;49.812;6.620;2023-04-15T01:38:44;2.40;;;1.53;;
12367;SDS011;6248;49.812;6.620;2023-04-15T01:41:12;3.30;;;1.30;;
12367;SDS011;6248;49.812;6.620;2023-04-15T01:43:40;2.30;;;1.40;;
12367;SDS011;6248;49.812;6.620;2023-04-15T01:46:07;1.93;;;1.23;;
12367;SDS011;6248;49.812;6.620;2023-04-15T01:48:35;2.50;;;1.30;;
12367;SDS011;6248;49.812;6.620;2023-04-15T01:51:02;3.33;;;1.47;;
12367;SDS011;6248;49.812;6.620;2023-04-15T01:53:29;2.43;;;1.43;;
12367;SDS011;6248;49.812;6.620;2023-04-15T01:55:57;1.50;;;1.30;;
12367;SDS011;6248;49.812;6.620;2023-04-15T01:58:24;6.43;;;1.60;;
12367;SDS011;6248;49.812;6.620;2023-04-15T02:00:52;4.20;;;1.40;;
12367;SDS011;6248;49.812;6.620;2023-04-15T02:03:20;2.27;;;1.70;;
12367;SDS011;6248;49.812;6.620;2023-04-15T02:05:47;2.50;;;1.60;;
12367;SDS011;6248;49.812;6.620;2023-04-15T02:08:15;2.63;;;1.53;;
12367;SDS011;6248;49.812;6.620;2023-04-15T02:10:42;2.27;;;1.50;;
12367;SDS011;6248;49.812;6.620;2023-04-15T02:13:09;4.07;;;1.70;;
12367;SDS011;6248;49.812;6.620;2023-04-15T02:15:36;3.03;;;1.70;;
12367;SDS011;6248;49.812;6.620;2023-04-15T02:18:04;2.73;;;1.50;;
12367;SDS011;6248;49.812;6.620;2023-04-15T02:20:32;2.97;;;1.50;;
12367;SDS011;6248;49.812;6.620;2023-04-15T02:23:00;3.27;;;1.60;;
12367;SDS011;6248;49.812;6.620;2023-04-15T02:25:31;2.53;;;1.40;;
12367;SDS011;6248;49.812;6.620;2023-04-15T02:27:58;1.43;;;1.27;;
12367;SDS011;6248;49.812;6.620;2023-04-15T02:30:25;3.37;;;1.67;;
12367;SDS011;6248;49.812;6.620;2023-04-15T02:32:52;3.00;;;1.60;;
12367;SDS011;6248;49.812;6.620;2023-04-15T02:35:21;2.07;;;1.47;;
12367;SDS011;6248;49.812;6.620;2023-04-15T02:37:49;1.87;;;1.40;;
12367;SDS011;6248;49.812;6.620;2023-04-15T02:40:17;2.53;;;1.80;;
12367;SDS011;6248;49.812;6.620;2023-04-15T02:42:44;3.60;;;1.80;;
12367;SDS011;6248;49.812;6.620;2023-04-15T02:45:11;3.50;;;2.20;;
12367;SDS011;6248;49.812;6.620;2023-04-15T02:47:38;3.33;;;1.97;;
12367;SDS011;6248;49.812;6.620;2023-04-15T02:50:07;3.60;;;1.70;;
12367;SDS011;6248;49.812;6.620;2023-04-15T02:52:37;2.50;;;1.70;;
12367;SDS011;6248;49.812;6.620;2023-04-15T02:55:05;1.87;;;1.57;;
12367;SDS011;6248;49.812;6.620;2023-04-15T02:57:33;2.83;;;1.50;;
12367;SDS011;6248;49.812;6.620;2023-04-15T03:00:03;4.27;;;2.03;;
12367;SDS011;6248;49.812;6.620;2023-04-15T03:02:32;3.30;;;1.60;;
12367;SDS011;6248;49.812;6.620;2023-04-15T03:05:00;2.53;;;1.60;;
12367;SDS011;6248;49.812;6.620;2023-04-15T03:07:27;3.83;;;1.70;;
12367;SDS011;6248;49.812;6.620;2023-04-15T03:09:55;2.40;;;1.63;;
12367;SDS011;6248;49.812;6.620;2023-04-15T03:12:23;2.73;;;1.63;;
12367;SDS011;6248;49.812;6.620;2023-04-15T03:14:50;1.50;;;1.40;;
12367;SDS011;6248;49.812;6.620;2023-04-15T03:17:17;3.00;;;1.60;;
12367;SDS011;6248;49.812;6.620;2023-04-15T03:19:44;2.40;;;1.60;;
12367;SDS011;6248;49.812;6.620;2023-04-15T03:22:11;5.00;;;1.70;;
12367;SDS011;6248;49.812;6.620;2023-04-15T03:24:38;3.97;;;1.70;;
12367;SDS011;6248;49.812;6.620;2023-04-15T03:27:07;2.97;;;1.60;;
12367;SDS011;6248;49.812;6.620;2023-04-15T03:29:34;2.30;;;1.57;;
12367;SDS011;6248;49.812;6.620;2023-04-15T03:32:01;3.77;;;1.90;;
12367;SDS011;6248;49.812;6.620;2023-04-15T03:34:28;3.40;;;1.57;;
12367;SDS011;6248;49.812;6.620;2023-04-15T03:36:56;2.73;;;1.80;;
12367;SDS011;6248;49.812;6.620;2023-04-15T03:39:23;2.97;;;1.77;;
12367;SDS011;6248;49.812;6.620;2023-04-15T03:41:50;1.80;;;1.53;;
12367;SDS011;6248;49.812;6.620;2023-04-15T03:44:18;1.83;;;1.37;;
12367;SDS011;6248;49.812;6.620;2023-04-15T03:46:45;2.23;;;1.80;;
12367;SDS011;6248;49.812;6.620;2023-04-15T03:49:12;5.80;;;1.60;;
12367;SDS011;6248;49.812;6.620;2023-04-15T03:51:40;2.90;;;1.80;;
12367;SDS011;6248;49.812;6.620;2023-04-15T03:54:07;4.10;;;1.63;;
12367;SDS011;6248;49.812;6.620;2023-04-15T03:56:34;3.50;;;1.53;;
12367;SDS011;6248;49.812;6.620;2023-04-15T03:59:01;2.57;;;1.33;;
12367;SDS011;6248;49.812;6.620;2023-04-15T04:01:30;3.47;;;1.70;;
12367;SDS011;6248;49.812;6.620;2023-04-15T04:03:57;1.80;;;1.40;;
12367;SDS011;6248;49.812;6.620;2023-04-15T04:06:24;2.23;;;1.67;;
12367;SDS011;6248;49.812;6.620;2023-04-15T04:08:51;1.67;;;1.40;;
12367;SDS011;6248;49.812;6.620;2023-04-15T04:11:18;2.50;;;1.70;;
12367;SDS011;6248;49.812;6.620;2023-04-15T04:13:46;2.40;;;1.70;;
12367;SDS011;6248;49.812;6.620;2023-04-15T04:16:13;3.80;;;1.87;;
12367;SDS011;6248;49.812;6.620;2023-04-15T04:18:41;1.87;;;1.57;;
12367;SDS011;6248;49.812;6.620;2023-04-15T04:21:08;2.93;;;1.67;;
12367;SDS011;6248;49.812;6.620;2023-04-15T04:23:36;2.30;;;1.40;;
12367;SDS011;6248;49.812;6.620;2023-04-15T04:26:03;2.77;;;1.67;;
12367;SDS011;6248;49.812;6.620;2023-04-15T04:28:30;2.83;;;1.70;;
12367;SDS011;6248;49.812;6.620;2023-04-15T04:30:57;2.70;;;1.57;;
12367;SDS011;6248;49.812;6.620;2023-04-15T04:33:24;1.57;;;1.43;;
12367;SDS011;6248;49.812;6.620;2023-04-15T04:35:53;2.33;;;1.50;;
12367;SDS011;6248;49.812;6.620;2023-04-15T04:38:20;2.07;;;1.57;;
12367;SDS011;6248;49.812;6.620;2023-04-15T04:40:47;3.27;;;1.70;;
12367;SDS011;6248;49.812;6.620;2023-04-15T04:43:14;2.33;;;1.80;;
12367;SDS011;6248;49.812;6.620;2023-04-15T04:45:41;2.90;;;1.60;;
12367;SDS011;6248;49.812;6.620;2023-04-15T04:48:08;3.17;;;1.50;;
12367;SDS011;6248;49.812;6.620;2023-04-15T04:50:35;2.60;;;1.77;;
12367;SDS011;6248;49.812;6.620;2023-04-15T04:53:04;2.50;;;1.80;;
12367;SDS011;6248;49.812;6.620;2023-04-15T04:55:31;4.40;;;1.63;;
12367;SDS011;6248;49.812;6.620;2023-04-15T04:58:00;1.70;;;1.50;;
12367;SDS011;6248;49.812;6.620;2023-04-15T05:00:28;2.33;;;1.80;;
12367;SDS011;6248;49.812;6.620;2023-04-15T05:02:55;2.93;;;1.50;;
12367;SDS011;6248;49.812;6.620;2023-04-15T05:05:22;3.17;;;1.80;;
12367;SDS011;6248;49.812;6.620;2023-04-15T05:07:49;3.40;;;1.70;;
12367;SDS011;6248;49.812;6.620;2023-04-15T05:10:18;1.77;;;1.57;;
12367;SDS011;6248;49.812;6.620;2023-04-15T05:12:45;2.53;;;1.80;;
12367;SDS011;6248;49.812;6.620;2023-04-15T05:15:12;2.33;;;1.70;;
12367;SDS011;6248;49.812;6.620;2023-04-15T05:17:39;4.47;;;1.80;;
12367;SDS011;6248;49.812;6.620;2023-04-15T05:20:07;3.67;;;1.80;;
12367;SDS011;6248;49.812;6.620;2023-04-15T05:22:34;2.47;;;1.80;;
12367;SDS011;6248;49.812;6.620;2023-04-15T05:25:01;2.93;;;1.80;;
12367;SDS011;6248;49.812;6.620;2023-04-15T05:27:30;2.90;;;2.40;;
12367;SDS011;6248;49.812;6.620;2023-04-15T05:29:57;2.43;;;2.00;;
12367;SDS011;6248;49.812;6.620;2023-04-15T05:32:24;6.03;;;1.83;;
12367;SDS011;6248;49.812;6.620;2023-04-15T05:34:51;2.47;;;1.90;;
12367;SDS011;6248;49.812;6.620;2023-04-15T05:37:18;4.13;;;2.00;;
12367;SDS011;6248;49.812;6.620;2023-04-15T05:39:46;3.30;;;1.83;;
12367;SDS011;6248;49.812;6.620;2023-04-15T05:42:13;1.80;;;1.60;;
12367;SDS011;6248;49.812;6.620;2023-04-15T05:44:42;5.37;;;1.83;;
12367;SDS011;6248;49.812;6.620;2023-04-15T05:47:09;3.43;;;1.90;;
12367;SDS011;6248;49.812;6.620;2023-04-15T05:49:36;1.67;;;1.43;;
12367;SDS011;6248;49.812;6.620;2023-04-15T05:52:03;3.87;;;2.23;;
12367;SDS011;6248;49.812;6.620;2023-04-15T05:54:30;7.80;;;4.10;;
12367;SDS011;6248;49.812;6.620;2023-04-15T05:56:58;3.73;;;2.70;;
12367;SDS011;6248;49.812;6.620;2023-04-15T05:59:25;3.80;;;2.67;;
12367;SDS011;6248;49.812;6.620;2023-04-15T06:01:54;2.30;;;1.50;;
12367;SDS011;6248;49.812;6.620;2023-04-15T06:04:22;2.23;;;1.80;;
12367;SDS011;6248;49.812;6.620;2023-04-15T06:06:49;3.10;;;1.70;;
12367;SDS011;6248;49.812;6.620;2023-04-15T06:09:16;3.97;;;1.90;;
12367;SDS011;6248;49.812;6.620;2023-04-15T06:11:43;4.07;;;1.93;;
12367;SDS011;6248;49.812;6.620;2023-04-15T06:14:10;2.30;;;1.60;;
12367;SDS011;6248;49.812;6.620;2023-04-15T06:16:37;1.70;;;1.60;;
12367;SDS011;6248;49.812;6.620;2023-04-15T06:19:06;3.97;;;1.90;;
12367;SDS011;6248;49.812;6.620;2023-04-15T06:21:33;2.33;;;1.70;;
12367;SDS011;6248;49.812;6.620;2023-04-15T06:24:00;3.63;;;2.17;;
12367;SDS011;6248;49.812;6.620;2023-04-15T06:26:27;2.10;;;1.90;;
12367;SDS011;6248;49.812;6.620;2023-04-15T06:28:55;3.80;;;2.50;;
12367;SDS011;6248;49.812;6.620;2023-04-15T06:31:22;3.53;;;2.10;;
12367;SDS011;6248;49.812;6.620;2023-04-15T06:33:49;2.50;;;1.97;;
12367;SDS011;6248;49.812;6.620;2023-04-15T06:36:18;2.97;;;1.60;;
12367;SDS011;6248;49.812;6.620;2023-04-15T06:38:45;4.47;;;1.70;;
12367;SDS011;6248;49.812;6.620;2023-04-15T06:41:12;2.20;;;1.67;;
12367;SDS011;6248;49.812;6.620;2023-04-15T06:43:40;2.67;;;1.63;;
12367;SDS011;6248;49.812;6.620;2023-04-15T06:46:08;2.97;;;1.70;;
12367;SDS011;6248;49.812;6.620;2023-04-15T06:48:35;3.67;;;1.60;;
12367;SDS011;6248;49.812;6.620;2023-04-15T06:51:03;3.47;;;1.90;;
12367;SDS011;6248;49.812;6.620;2023-04-15T06:53:31;3.63;;;2.40;;
12367;SDS011;6248;49.812;6.620;2023-04-15T06:55:59;5.63;;;2.50;;
12367;SDS011;6248;49.812;6.620;2023-04-15T06:58:26;3.37;;;2.17;;
12367;SDS011;6248;49.812;6.620;2023-04-15T07:00:54;4.07;;;2.50;;
12367;SDS011;6248;49.812;6.620;2023-04-15T07:03:21;2.47;;;1.90;;
12367;SDS011;6248;49.812;6.620;2023-04-15T07:05:48;4.33;;;2.00;;
12367;SDS011;6248;49.812;6.620;2023-04-15T07:08:15;1.90;;;1.70;;
12367;SDS011;6248;49.812;6.620;2023-04-15T07:10:44;3.27;;;2.60;;
12367;SDS011;6248;49.812;6.620;2023-04-15T07:13:11;5.70;;;3.13;;
12367;SDS011;6248;49.812;6.620;2023-04-15T07:15:38;5.47;;;3.93;;
12367;SDS011;6248;49.812;6.620;2023-04-15T07:18:06;5.60;;;3.93;;
12367;SDS011;6248;49.812;6.620;2023-04-15T07:20:33;4.00;;;3.10;;
12367;SDS011;6248;49.812;6.620;2023-04-15T07:23:01;3.40;;;2.70;;
12367;SDS011;6248;49.812;6.620;2023-04-15T07:25:28;3.10;;;2.90;;
12367;SDS011;6248;49.812;6.620;2023-04-15T07:27:56;2.50;;;2.30;;
12367;SDS011;6248;49.812;6.620;2023-04-15T07:30:23;1.97;;;1.70;;
12367;SDS011;6248;49.812;6.620;2023-04-15T07:32:51;3.33;;;1.50;;
12367;SDS011;6248;49.812;6.620;2023-04-15T07:35:18;2.70;;;1.60;;
12367;SDS011;6248;49.812;6.620;2023-04-15T07:37:45;2.33;;;1.40;;
12367;SDS011;6248;49.812;6.620;2023-04-15T07:40:12;2.57;;;1.67;;
12367;SDS011;6248;49.812;6.620;2023-04-15T07:42:40;3.17;;;1.73;;
12367;SDS011;6248;49.812;6.620;2023-04-15T07:45:09;2.63;;;1.50;;
12367;SDS011;6248;49.812;6.620;2023-04-15T07:47:36;3.53;;;1.70;;
12367;SDS011;6248;49.812;6.620;2023-04-15T07:50:05;3.90;;;1.50;;
12367;SDS011;6248;49.812;6.620;2023-04-15T07:52:32;3.50;;;1.50;;
12367;SDS011;6248;49.812;6.620;2023-04-15T07:55:03;1.93;;;1.33;;
12367;SDS011;6248;49.812;6.620;2023-04-15T07:57:31;3.47;;;1.80;;
12367;SDS011;6248;49.812;6.620;2023-04-15T07:59:58;4.00;;;1.70;;
12367;SDS011;6248;49.812;6.620;2023-04-15T08:02:27;2.67;;;1.30;;
12367;SDS011;6248;49.812;6.620;2023-04-15T08:04:54;2.53;;;1.80;;
12367;SDS011;6248;49.812;6.620;2023-04-15T08:07:21;2.30;;;1.30;;
12367;SDS011;6248;49.812;6.620;2023-04-15T08:09:49;4.03;;;1.57;;
12367;SDS011;6248;49.812;6.620;2023-04-15T08:12:16;2.23;;;1.43;;
12367;SDS011;6248;49.812;6.620;2023-04-15T08:14:43;1.87;;;1.30;;
12367;SDS011;6248;49.812;6.620;2023-04-15T08:17:11;3.10;;;1.63;;
12367;SDS011;6248;49.812;6.620;2023-04-15T08:19:39;2.63;;;1.30;;
12367;SDS011;6248;49.812;6.620;2023-04-15T08:22:07;3.33;;;1.30;;
12367;SDS011;6248;49.812;6.620;2023-04-15T08:24:34;2.57;;;1.30;;
12367;SDS011;6248;49.812;6.620;2023-04-15T08:27:01;2.90;;;1.30;;
12367;SDS011;6248;49.812;6.620;2023-04-15T08:29:29;2.45;;;1.35;;
12367;SDS011;6248;49.812;6.620;2023-04-15T08:31:57;3.13;;;1.35;;
12367;SDS011;6248;49.812;6.620;2023-04-15T08:34:25;3.88;;;1.58;;
12367;SDS011;6248;49.812;6.620;2023-04-15T08:36:54;3.15;;;1.70;;
12367;SDS011;6248;49.812;6.620;2023-04-15T08:39:21;3.97;;;1.92;;
12367;SDS011;6248;49.812;6.620;2023-04-15T08:41:50;3.97;;;2.20;;
12367;SDS011;6248;49.812;6.620;2023-04-15T08:44:18;3.08;;;1.50;;
12367;SDS011;6248;49.812;6.620;2023-04-15T08:46:45;2.25;;;1.35;;
12367;SDS011;6248;49.812;6.620;2023-04-15T08:49:13;1.70;;;1.40;;
12367;SDS011;6248;49.812;6.620;2023-04-15T08:51:41;4.93;;;1.58;;
12367;SDS011;6248;49.812;6.620;2023-04-15T08:54:10;2.17;;;1.50;;
12367;SDS011;6248;49.812;6.620;2023-04-15T08:56:37;5.97;;;1.40;;
12367;SDS011;6248;49.812;6.620;2023-04-15T08:59:05;5.45;;;1.45;;
12367;SDS011;6248;49.812;6.620;2023-04-15T09:01:32;2.78;;;1.40;;
12367;SDS011;6248;49.812;6.620;2023-04-15T09:04:00;3.67;;;1.50;;
12367;SDS011;6248;49.812;6.620;2023-04-15T09:06:30;5.43;;;1.58;;
12367;SDS011;6248;49.812;6.620;2023-04-15T09:08:57;3.50;;;1.50;;
12367;SDS011;6248;49.812;6.620;2023-04-15T09:11:26;3.42;;;1.35;;
12367;SDS011;6248;49.812;6.620;2023-04-15T09:13:53;3.15;;;1.23;;
12367;SDS011;6248;49.812;6.620;2023-04-15T09:16:20;4.63;;;1.40;;
12367;SDS011;6248;49.812;6.620;2023-04-15T09:18:48;3.85;;;1.45;;
12367;SDS011;6248;49.812;6.620;2023-04-15T09:21:15;2.05;;;1.30;;
12367;SDS011;6248;49.812;6.620;2023-04-15T09:23:53;4.80;;;1.40;;
12367;SDS011;6248;49.812;6.620;2023-04-15T09:26:30;2.53;;;1.00;;
12367;SDS011;6248;49.812;6.620;2023-04-15T09:29:01;1.95;;;1.35;;
12367;SDS011;6248;49.812;6.620;2023-04-15T09:31:29;5.18;;;1.25;;
12367;SDS011;6248;49.812;6.620;2023-04-15T09:33:57;4.10;;;1.20;;
12367;SDS011;6248;49.812;6.620;2023-04-15T09:36:24;3.25;;;1.10;;
12367;SDS011;6248;49.812;6.620;2023-04-15T09:38:54;3.78;;;1.40;;
12367;SDS011;6248;49.812;6.620;2023-04-15T09:41:21;3.30;;;1.20;;
12367;SDS011;6248;49.812;6.620;2023-04-15T09:43:51;5.63;;;1.50;;
12367;SDS011;6248;49.812;6.620;2023-04-15T09:46:18;7.75;;;1.55;;
12367;SDS011;6248;49.812;6.620;2023-04-15T09:48:46;4.63;;;1.67;;
12367;SDS011;6248;49.812;6.620;2023-04-15T09:51:13;5.55;;;1.45;;
12367;SDS011;6248;49.812;6.620;2023-04-15T09:53:41;2.47;;;1.38;;
12367;SDS011;6248;49.812;6.620;2023-04-15T09:56:08;3.42;;;1.33;;
12367;SDS011;6248;49.812;6.620;2023-04-15T09:58:35;2.22;;;1.35;;
12367;SDS011;6248;49.812;6.620;2023-04-15T10:01:07;3.35;;;1.30;;
12367;SDS011;6248;49.812;6.620;2023-04-15T10:03:35;3.33;;;1.40;;
12367;SDS011;6248;49.812;6.620;2023-04-15T10:06:03;4.00;;;1.60;;
12367;SDS011;6248;49.812;6.620;2023-04-15T10:08:31;3.35;;;1.33;;
12367;SDS011;6248;49.812;6.620;2023-04-15T10:10:59;3.05;;;1.40;;
12367;SDS011;6248;49.812;6.620;2023-04-15T10:13:28;3.55;;;1.30;;
12367;SDS011;6248;49.812;6.620;2023-04-15T10:15:57;3.47;;;1.50;;
12367;SDS011;6248;49.812;6.620;2023-04-15T10:18:27;3.63;;;1.58;;
12367;SDS011;6248;49.812;6.620;2023-04-15T10:20:55;2.50;;;1.30;;
12367;SDS011;6248;49.812;6.620;2023-04-15T10:23:22;1.90;;;1.25;;
12367;SDS011;6248;49.812;6.620;2023-04-15T10:25:50;4.35;;;1.38;;
12367;SDS011;6248;49.812;6.620;2023-04-15T10:28:18;2.72;;;1.25;;
12367;SDS011;6248;49.812;6.620;2023-04-15T10:30:47;2.63;;;1.25;;
12367;SDS011;6248;49.812;6.620;2023-04-15T10:33:16;3.33;;;1.48;;
12367;SDS011;6248;49.812;6.620;2023-04-15T10:35:48;2.72;;;1.23;;
12367;SDS011;6248;49.812;6.620;2023-04-15T10:38:30;2.63;;;1.55;;
12367;SDS011;6248;49.812;6.620;2023-04-15T10:41:10;2.40;;;1.48;;
12367;SDS011;6248;49.812;6.620;2023-04-15T10:43:38;2.63;;;1.50;;
12367;SDS011;6248;49.812;6.620;2023-04-15T10:46:05;2.40;;;1.30;;
12367;SDS011;6248;49.812;6.620;2023-04-15T10:48:33;1.67;;;1.20;;
12367;SDS011;6248;49.812;6.620;2023-04-15T10:51:02;3.47;;;1.60;;
12367;SDS011;6248;49.812;6.620;2023-04-15T10:53:29;3.35;;;1.60;;
12367;SDS011;6248;49.812;6.620;2023-04-15T10:55:57;3.05;;;1.58;;
12367;SDS011;6248;49.812;6.620;2023-04-15T10:58:24;3.10;;;1.40;;
12367;SDS011;6248;49.812;6.620;2023-04-15T11:00:52;4.00;;;1.60;;
12367;SDS011;6248;49.812;6.620;2023-04-15T11:03:33;4.45;;;1.88;;
12367;SDS011;6248;49.812;6.620;2023-04-15T11:06:06;3.10;;;1.70;;
12367;SDS011;6248;49.812;6.620;2023-04-15T11:08:52;3.90;;;1.63;;
12367;SDS011;6248;49.812;6.620;2023-04-15T11:11:20;2.90;;;1.65;;
12367;SDS011;6248;49.812;6.620;2023-04-15T11:13:48;3.85;;;1.92;;
12367;SDS011;6248;49.812;6.620;2023-04-15T11:16:16;3.63;;;1.67;;
12367;SDS011;6248;49.812;6.620;2023-04-15T11:18:52;4.20;;;2.55;;
12367;SDS011;6248;49.812;6.620;2023-04-15T11:21:21;2.50;;;1.55;;
12367;SDS011;6248;49.812;6.620;2023-04-15T11:23:50;2.00;;;1.60;;
12367;SDS011;6248;49.812;6.620;2023-04-15T11:26:17;2.47;;;1.60;;
12367;SDS011;6248;49.812;6.620;2023-04-15T11:28:48;4.43;;;2.00;;
12367;SDS011;6248;49.812;6.620;2023-04-15T11:31:15;4.00;;;1.75;;
12367;SDS011;6248;49.812;6.620;2023-04-15T11:33:44;2.92;;;1.98;;
12367;SDS011;6248;49.812;6.620;2023-04-15T11:36:12;3.80;;;1.83;;
12367;SDS011;6248;49.812;6.620;2023-04-15T11:38:45;4.72;;;1.90;;
12367;SDS011;6248;49.812;6.620;2023-04-15T11:41:12;1.92;;;1.60;;
12367;SDS011;6248;49.812;6.620;2023-04-15T11:43:41;2.42;;;1.70;;
12367;SDS011;6248;49.812;6.620;2023-04-15T11:46:08;2.17;;;1.50;;
12367;SDS011;6248;49.812;6.620;2023-04-15T11:48:40;4.63;;;1.70;;
12367;SDS011;6248;49.812;6.620;2023-04-15T11:51:08;3.80;;;1.73;;
12367;SDS011;6248;49.812;6.620;2023-04-15T11:53:36;2.15;;;1.30;;
12367;SDS011;6248;49.812;6.620;2023-04-15T11:56:10;2.42;;;1.30;;
12367;SDS011;6248;49.812;6.620;2023-04-15T11:58:37;4.10;;;1.45;;
12367;SDS011;6248;49.812;6.620;2023-04-15T12:01:05;1.45;;;1.23;;
12367;SDS011;6248;49.812;6.620;2023-04-15T12:03:36;4.50;;;1.50;;
12367;SDS011;6248;49.812;6.620;2023-04-15T12:06:07;1.73;;;1.30;;
12367;SDS011;6248;49.812;6.620;2023-04-15T12:08:52;3.60;;;1.48;;
12367;SDS011;6248;49.812;6.620;2023-04-15T12:11:28;2.75;;;1.45;;
12367;SDS011;6248;49.812;6.620;2023-04-15T12:13:56;3.05;;;1.45;;
12367;SDS011;6248;49.812;6.620;2023-04-15T12:16:24;2.33;;;1.80;;
12367;SDS011;6248;49.812;6.620;2023-04-15T12:18:52;2.63;;;1.30;;
12367;SDS011;6248;49.812;6.620;2023-04-15T12:21:20;4.78;;;1.20;;
12367;SDS011;6248;49.812;6.620;2023-04-15T12:26:44;4.13;;;1.20;;
12367;SDS011;6248;49.812;6.620;2023-04-15T12:29:12;3.88;;;1.35;;
12367;SDS011;6248;49.812;6.620;2023-04-15T12:31:50;1.20;;;1.00;;
12367;SDS011;6248;49.812;6.620;2023-04-15T12:34:18;1.80;;;1.05;;
12367;SDS011;6248;49.812;6.620;2023-04-15T12:36:52;1.20;;;1.10;;
12367;SDS011;6248;49.812;6.620;2023-04-15T12:39:20;1.67;;;1.20;;
12367;SDS011;6248;49.812;6.620;2023-04-15T12:41:49;2.30;;;1.27;;
12367;SDS011;6248;49.812;6.620;2023-04-15T12:44:17;1.52;;;1.20;;
12367;SDS011;6248;49.812;6.620;2023-04-15T12:46:47;1.40;;;1.30;;
12367;SDS011;6248;49.812;6.620;2023-04-15T12:49:15;1.33;;;1.23;;
12367;SDS011;6248;49.812;6.620;2023-04-15T12:51:45;1.58;;;1.40;;
12367;SDS011;6248;49.812;6.620;2023-04-15T12:54:14;1.83;;;1.50;;
12367;SDS011;6248;49.812;6.620;2023-04-15T12:56:42;1.88;;;1.75;;
12367;SDS011;6248;49.812;6.620;2023-04-15T12:59:14;1.95;;;1.58;;
12367;SDS011;6248;49.812;6.620;2023-04-15T13:01:45;2.10;;;1.90;;
12367;SDS011;6248;49.812;6.620;2023-04-15T13:04:19;1.58;;;1.48;;
12367;SDS011;6248;49.812;6.620;2023-04-15T13:06:47;3.30;;;1.48;;
12367;SDS011;6248;49.812;6.620;2023-04-15T13:09:14;1.60;;;1.50;;
12367;SDS011;6248;49.812;6.620;2023-04-15T13:11:41;1.90;;;1.75;;
12367;SDS011;6248;49.812;6.620;2023-04-15T13:14:11;2.40;;;1.73;;
12367;SDS011;6248;49.812;6.620;2023-04-15T13:16:45;3.67;;;1.92;;
12367;SDS011;6248;49.812;6.620;2023-04-15T13:19:13;1.60;;;1.48;;
12367;SDS011;6248;49.812;6.620;2023-04-15T13:21:50;1.30;;;1.20;;
12367;SDS011;6248;49.812;6.620;2023-04-15T13:24:18;1.35;;;1.20;;
12367;SDS011;6248;49.812;6.620;2023-04-15T13:26:45;1.67;;;1.17;;
12367;SDS011;6248;49.812;6.620;2023-04-15T13:29:13;1.63;;;1.45;;
12367;SDS011;6248;49.812;6.620;2023-04-15T13:31:42;1.30;;;1.10;;
12367;SDS011;6248;49.812;6.620;2023-04-15T13:34:09;1.15;;;1.05;;
12367;SDS011;6248;49.812;6.620;2023-04-15T13:36:37;1.13;;;1.02;;
12367;SDS011;6248;49.812;6.620;2023-04-15T13:39:04;1.55;;;1.20;;
12367;SDS011;6248;49.812;6.620;2023-04-15T13:41:31;1.30;;;1.20;;
12367;SDS011;6248;49.812;6.620;2023-04-15T13:43:59;1.58;;;1.20;;
12367;SDS011;6248;49.812;6.620;2023-04-15T13:46:26;1.30;;;1.15;;
12367;SDS011;6248;49.812;6.620;2023-04-15T13:48:55;1.20;;;1.10;;
12367;SDS011;6248;49.812;6.620;2023-04-15T13:51:22;1.25;;;1.15;;
12367;SDS011;6248;49.812;6.620;2023-04-15T13:53:51;1.23;;;1.10;;
12367;SDS011;6248;49.812;6.620;2023-04-15T13:56:18;1.30;;;1.20;;
12367;SDS011;6248;49.812;6.620;2023-04-15T13:58:45;2.47;;;1.58;;
12367;SDS011;6248;49.812;6.620;2023-04-15T14:01:12;1.83;;;1.65;;
12367;SDS011;6248;49.812;6.620;2023-04-15T14:03:40;2.65;;;1.40;;
12367;SDS011;6248;49.812;6.620;2023-04-15T14:06:09;1.85;;;1.45;;
12367;SDS011;6248;49.812;6.620;2023-04-15T14:08:36;3.10;;;1.48;;
12367;SDS011;6248;49.812;6.620;2023-04-15T14:11:03;1.38;;;1.27;;
12367;SDS011;6248;49.812;6.620;2023-04-15T14:13:31;1.83;;;1.23;;
12367;SDS011;6248;49.812;6.620;2023-04-15T14:15:58;3.60;;;1.73;;
12367;SDS011;6248;49.812;6.620;2023-04-15T14:18:25;1.52;;;1.42;;
12367;SDS011;6248;49.812;6.620;2023-04-15T14:20:53;2.08;;;1.58;;
12367;SDS011;6248;49.812;6.620;2023-04-15T14:23:22;2.22;;;1.63;;
12367;SDS011;6248;49.812;6.620;2023-04-15T14:25:50;1.85;;;1.70;;
12367;SDS011;6248;49.812;6.620;2023-04-15T14:28:17;1.83;;;1.60;;
12367;SDS011;6248;49.812;6.620;2023-04-15T14:30:44;1.77;;;1.67;;
12367;SDS011;6248;49.812;6.620;2023-04-15T14:33:12;2.70;;;1.50;;
12367;SDS011;6248;49.812;6.620;2023-04-15T14:35:39;1.52;;;1.42;;
12367;SDS011;6248;49.812;6.620;2023-04-15T14:38:06;1.90;;;1.60;;
12367;SDS011;6248;49.812;6.620;2023-04-15T14:40:36;1.50;;;1.40;;
12367;SDS011;6248;49.812;6.620;2023-04-15T14:43:03;3.80;;;1.35;;
12367;SDS011;6248;49.812;6.620;2023-04-15T14:45:31;4.00;;;1.65;;
12367;SDS011;6248;49.812;6.620;2023-04-15T14:47:58;3.63;;;1.80;;
12367;SDS011;6248;49.812;6.620;2023-04-15T14:50:26;1.60;;;1.50;;
12367;SDS011;6248;49.812;6.620;2023-04-15T14:52:54;1.50;;;1.40;;
12367;SDS011;6248;49.812;6.620;2023-04-15T14:55:21;1.38;;;1.20;;
12367;SDS011;6248;49.812;6.620;2023-04-15T14:57:50;1.52;;;1.30;;
12367;SDS011;6248;49.812;6.620;2023-04-15T15:00:17;2.17;;;1.35;;
12367;SDS011;6248;49.812;6.620;2023-04-15T15:02:44;1.20;;;1.20;;
12367;SDS011;6248;49.812;6.620;2023-04-15T15:05:12;1.20;;;1.05;;
12367;SDS011;6248;49.812;6.620;2023-04-15T15:07:40;1.50;;;1.17;;